sensor_id;sensor_type;location;lat;lon;timestamp;P1;durP1;ratioP1;P2;durP2;ratioP2
15482;SDS011;7843;50.330;7.312;2024-01-15T00:01:41;6.80;;;3.33;;
15482;SDS011;7843;50.330;7.312;2024-01-15T00:04:09;4.28;;;2.13;;
15482;SDS011;7843;50.330;7.312;2024-01-15T00:06:36;6.03;;;2.85;;
15482;SDS011;7843;50.330;7.312;2024-01-15T00:09:03;6.90;;;2.75;;
15482;SDS011;7843;50.330;7.312;2024-01-15T00:11:30;4.65;;;2.80;;
15482;SDS011;7843;50.330;7.312;2024-01-15T00:13:56;7.10;;;2.50;;
15482;SDS011;7843;50.330;7.312;2024-01-15T00:16:23;2.85;;;2.00;;
15482;SDS011;7843;50.330;7.312;2024-01-15T00:18:50;6.40;;;2.70;;
15482;SDS011;7843;50.330;7.312;2024-01-15T00:21:17;6.32;;;2.92;;
15482;SDS011;7843;50.330;7.312;2024-01-15T00:23:43;5.95;;;2.97;;
15482;SDS011;7843;50.330;7.312;2024-01-15T00:26:11;5.53;;;2.35;;
15482;SDS011;7843;50.330;7.312;2024-01-15T00:28:38;4.57;;;2.33;;
15482;SDS011;7843;50.330;7.312;2024-01-15T00:31:05;4.93;;;2.47;;
15482;SDS011;7843;50.330;7.312;2024-01-15T00:33:32;6.07;;;2.63;;
15482;SDS011;7843;50.330;7.312;2024-01-15T00:35:59;9.25;;;3.15;;
15482;SDS011;7843;50.330;7.312;2024-01-15T00:38:25;6.97;;;3.08;;
15482;SDS011;7843;50.330;7.312;2024-01-15T00:40:52;10.63;;;3.17;;
15482;SDS011;7843;50.330;7.312;2024-01-15T00:43:19;4.45;;;2.42;;
15482;SDS011;7843;50.330;7.312;2024-01-15T00:45:48;4.63;;;2.25;;
15482;SDS011;7843;50.330;7.312;2024-01-15T00:48:15;5.80;;;3.13;;
15482;SDS011;7843;50.330;7.312;2024-01-15T00:50:41;4.10;;;2.30;;
15482;SDS011;7843;50.330;7.312;2024-01-15T00:53:08;5.07;;;2.78;;
15482;SDS011;7843;50.330;7.312;2024-01-15T00:55:35;8.15;;;3.17;;
15482;SDS011;7843;50.330;7.312;2024-01-15T00:58:03;5.45;;;2.70;;
15482;SDS011;7843;50.330;7.312;2024-01-15T01:00:30;6.70;;;2.95;;
15482;SDS011;7843;50.330;7.312;2024-01-15T01:02:57;7.45;;;3.45;;
15482;SDS011;7843;50.330;7.312;2024-01-15T01:05:23;4.70;;;2.97;;
15482;SDS011;7843;50.330;7.312;2024-01-15T01:07:50;4.75;;;2.45;;
15482;SDS011;7843;50.330;7.312;2024-01-15T01:10:17;6.43;;;3.13;;
15482;SDS011;7843;50.330;7.312;2024-01-15T01:12:44;10.63;;;3.30;;
15482;SDS011;7843;50.330;7.312;2024-01-15T01:15:11;9.37;;;4.90;;
15482;SDS011;7843;50.330;7.312;2024-01-15T01:17:38;9.45;;;3.88;;
15482;SDS011;7843;50.330;7.312;2024-01-15T01:20:05;6.93;;;3.10;;
15482;SDS011;7843;50.330;7.312;2024-01-15T01:22:34;10.20;;;2.55;;
15482;SDS011;7843;50.330;7.312;2024-01-15T01:25:01;7.68;;;3.05;;
15482;SDS011;7843;50.330;7.312;2024-01-15T01:27:28;6.57;;;3.38;;
15482;SDS011;7843;50.330;7.312;2024-01-15T01:29:55;11.23;;;4.07;;
15482;SDS011;7843;50.330;7.312;2024-01-15T01:32:22;7.15;;;3.60;;
15482;SDS011;7843;50.330;7.312;2024-01-15T01:34:49;7.22;;;2.67;;
15482;SDS011;7843;50.330;7.312;2024-01-15T01:37:15;8.55;;;3.08;;
15482;SDS011;7843;50.330;7.312;2024-01-15T01:39:43;3.38;;;2.30;;
15482;SDS011;7843;50.330;7.312;2024-01-15T01:42:10;5.67;;;2.60;;
15482;SDS011;7843;50.330;7.312;2024-01-15T01:44:38;7.20;;;3.17;;
15482;SDS011;7843;50.330;7.312;2024-01-15T01:47:04;7.88;;;3.22;;
15482;SDS011;7843;50.330;7.312;2024-01-15T01:49:32;6.90;;;3.57;;
15482;SDS011;7843;50.330;7.312;2024-01-15T01:52:02;8.90;;;3.50;;
15482;SDS011;7843;50.330;7.312;2024-01-15T01:54:31;5.97;;;2.53;;
15482;SDS011;7843;50.330;7.312;2024-01-15T01:56:59;5.80;;;3.05;;
15482;SDS011;7843;50.330;7.312;2024-01-15T01:59:28;9.57;;;3.05;;
15482;SDS011;7843;50.330;7.312;2024-01-15T02:01:56;8.35;;;2.20;;
15482;SDS011;7843;50.330;7.312;2024-01-15T02:04:24;7.00;;;3.17;;
15482;SDS011;7843;50.330;7.312;2024-01-15T02:06:52;4.40;;;2.30;;
15482;SDS011;7843;50.330;7.312;2024-01-15T02:09:19;4.03;;;2.50;;
15482;SDS011;7843;50.330;7.312;2024-01-15T02:11:46;5.22;;;3.42;;
15482;SDS011;7843;50.330;7.312;2024-01-15T02:14:13;8.90;;;2.85;;
15482;SDS011;7843;50.330;7.312;2024-01-15T02:16:41;5.20;;;2.97;;
15482;SDS011;7843;50.330;7.312;2024-01-15T02:19:07;8.23;;;2.90;;
15482;SDS011;7843;50.330;7.312;2024-01-15T02:21:42;5.38;;;2.47;;
15482;SDS011;7843;50.330;7.312;2024-01-15T02:24:09;5.72;;;2.92;;
15482;SDS011;7843;50.330;7.312;2024-01-15T02:26:36;8.27;;;3.10;;
15482;SDS011;7843;50.330;7.312;2024-01-15T02:29:07;6.17;;;3.53;;
15482;SDS011;7843;50.330;7.312;2024-01-15T02:31:37;8.30;;;3.00;;
15482;SDS011;7843;50.330;7.312;2024-01-15T02:34:04;8.38;;;3.53;;
15482;SDS011;7843;50.330;7.312;2024-01-15T02:36:30;7.45;;;2.70;;
15482;SDS011;7843;50.330;7.312;2024-01-15T02:38:57;7.13;;;2.75;;
15482;SDS011;7843;50.330;7.312;2024-01-15T02:41:24;8.15;;;3.13;;
15482;SDS011;7843;50.330;7.312;2024-01-15T02:43:51;6.57;;;3.42;;
15482;SDS011;7843;50.330;7.312;2024-01-15T02:46:17;3.75;;;2.33;;
15482;SDS011;7843;50.330;7.312;2024-01-15T02:48:44;8.82;;;3.22;;
15482;SDS011;7843;50.330;7.312;2024-01-15T02:51:11;2.67;;;2.05;;
15482;SDS011;7843;50.330;7.312;2024-01-15T02:53:38;5.50;;;3.10;;
15482;SDS011;7843;50.330;7.312;2024-01-15T02:56:06;4.75;;;2.70;;
15482;SDS011;7843;50.330;7.312;2024-01-15T02:58:33;7.00;;;3.47;;
15482;SDS011;7843;50.330;7.312;2024-01-15T03:01:00;6.88;;;2.30;;
15482;SDS011;7843;50.330;7.312;2024-01-15T03:03:27;7.50;;;3.67;;
15482;SDS011;7843;50.330;7.312;2024-01-15T03:05:53;7.78;;;4.05;;
15482;SDS011;7843;50.330;7.312;2024-01-15T03:08:20;6.40;;;2.70;;
15482;SDS011;7843;50.330;7.312;2024-01-15T03:10:48;7.72;;;3.38;;
15482;SDS011;7843;50.330;7.312;2024-01-15T03:13:15;9.05;;;3.30;;
15482;SDS011;7843;50.330;7.312;2024-01-15T03:15:43;7.60;;;3.50;;
15482;SDS011;7843;50.330;7.312;2024-01-15T03:18:09;7.68;;;3.05;;
15482;SDS011;7843;50.330;7.312;2024-01-15T03:20:36;8.80;;;3.45;;
15482;SDS011;7843;50.330;7.312;2024-01-15T03:23:03;3.30;;;2.67;;
15482;SDS011;7843;50.330;7.312;2024-01-15T03:25:30;9.38;;;3.55;;
15482;SDS011;7843;50.330;7.312;2024-01-15T03:27:56;8.38;;;2.88;;
15482;SDS011;7843;50.330;7.312;2024-01-15T03:30:23;4.30;;;2.53;;
15482;SDS011;7843;50.330;7.312;2024-01-15T03:32:50;6.15;;;2.80;;
15482;SDS011;7843;50.330;7.312;2024-01-15T03:35:17;7.30;;;3.65;;
15482;SDS011;7843;50.330;7.312;2024-01-15T03:37:43;8.30;;;2.70;;
15482;SDS011;7843;50.330;7.312;2024-01-15T03:40:10;6.43;;;3.03;;
15482;SDS011;7843;50.330;7.312;2024-01-15T03:42:37;5.80;;;2.80;;
15482;SDS011;7843;50.330;7.312;2024-01-15T03:45:04;6.35;;;3.30;;
15482;SDS011;7843;50.330;7.312;2024-01-15T03:47:31;7.20;;;3.00;;
15482;SDS011;7843;50.330;7.312;2024-01-15T03:49:58;6.55;;;2.75;;
15482;SDS011;7843;50.330;7.312;2024-01-15T03:52:25;6.63;;;2.97;;
15482;SDS011;7843;50.330;7.312;2024-01-15T03:54:51;8.55;;;3.28;;
15482;SDS011;7843;50.330;7.312;2024-01-15T03:57:18;7.05;;;2.90;;
15482;SDS011;7843;50.330;7.312;2024-01-15T03:59:45;7.38;;;4.03;;
15482;SDS011;7843;50.330;7.312;2024-01-15T04:02:13;5.95;;;3.05;;
15482;SDS011;7843;50.330;7.312;2024-01-15T04:04:42;7.93;;;3.58;;
15482;SDS011;7843;50.330;7.312;2024-01-15T04:07:09;6.07;;;2.92;;
15482;SDS011;7843;50.330;7.312;2024-01-15T04:09:36;14.77;;;4.03;;
15482;SDS011;7843;50.330;7.312;2024-01-15T04:12:03;6.15;;;2.88;;
15482;SDS011;7843;50.330;7.312;2024-01-15T04:14:30;9.30;;;3.58;;
15482;SDS011;7843;50.330;7.312;2024-01-15T04:16:57;6.80;;;3.35;;
15482;SDS011;7843;50.330;7.312;2024-01-15T04:19:25;5.60;;;2.60;;
15482;SDS011;7843;50.330;7.312;2024-01-15T04:21:55;7.03;;;3.30;;
15482;SDS011;7843;50.330;7.312;2024-01-15T04:24:22;9.73;;;3.87;;
15482;SDS011;7843;50.330;7.312;2024-01-15T04:26:48;11.03;;;4.43;;
15482;SDS011;7843;50.330;7.312;2024-01-15T04:29:15;8.00;;;3.28;;
15482;SDS011;7843;50.330;7.312;2024-01-15T04:31:42;8.30;;;4.15;;
15482;SDS011;7843;50.330;7.312;2024-01-15T04:34:09;10.32;;;3.92;;
15482;SDS011;7843;50.330;7.312;2024-01-15T04:36:39;5.45;;;2.50;;
15482;SDS011;7843;50.330;7.312;2024-01-15T04:39:07;6.40;;;3.67;;
15482;SDS011;7843;50.330;7.312;2024-01-15T04:41:34;7.25;;;2.90;;
15482;SDS011;7843;50.330;7.312;2024-01-15T04:44:00;7.90;;;3.33;;
15482;SDS011;7843;50.330;7.312;2024-01-15T04:46:27;7.87;;;3.90;;
15482;SDS011;7843;50.330;7.312;2024-01-15T04:48:54;8.93;;;3.88;;
15482;SDS011;7843;50.330;7.312;2024-01-15T04:51:21;8.95;;;4.05;;
15482;SDS011;7843;50.330;7.312;2024-01-15T04:53:47;8.55;;;3.33;;
15482;SDS011;7843;50.330;7.312;2024-01-15T04:56:14;10.52;;;4.07;;
15482;SDS011;7843;50.330;7.312;2024-01-15T04:58:41;8.68;;;3.28;;
15482;SDS011;7843;50.330;7.312;2024-01-15T05:01:08;9.47;;;3.77;;
15482;SDS011;7843;50.330;7.312;2024-01-15T05:03:35;9.82;;;3.97;;
15482;SDS011;7843;50.330;7.312;2024-01-15T05:06:02;8.15;;;3.40;;
15482;SDS011;7843;50.330;7.312;2024-01-15T05:08:29;11.13;;;3.40;;
15482;SDS011;7843;50.330;7.312;2024-01-15T05:10:55;6.27;;;3.67;;
15482;SDS011;7843;50.330;7.312;2024-01-15T05:13:22;9.90;;;4.03;;
15482;SDS011;7843;50.330;7.312;2024-01-15T05:15:49;8.90;;;3.55;;
15482;SDS011;7843;50.330;7.312;2024-01-15T05:18:16;8.02;;;3.20;;
15482;SDS011;7843;50.330;7.312;2024-01-15T05:20:43;5.75;;;2.78;;
15482;SDS011;7843;50.330;7.312;2024-01-15T05:23:10;15.80;;;4.80;;
15482;SDS011;7843;50.330;7.312;2024-01-15T05:25:37;9.93;;;3.30;;
15482;SDS011;7843;50.330;7.312;2024-01-15T05:28:04;8.40;;;2.90;;
15482;SDS011;7843;50.330;7.312;2024-01-15T05:30:32;7.30;;;2.95;;
15482;SDS011;7843;50.330;7.312;2024-01-15T05:32:59;8.18;;;3.33;;
15482;SDS011;7843;50.330;7.312;2024-01-15T05:35:26;7.70;;;4.07;;
15482;SDS011;7843;50.330;7.312;2024-01-15T05:37:53;13.13;;;4.65;;
15482;SDS011;7843;50.330;7.312;2024-01-15T05:40:20;7.45;;;3.85;;
15482;SDS011;7843;50.330;7.312;2024-01-15T05:42:46;9.73;;;4.25;;
15482;SDS011;7843;50.330;7.312;2024-01-15T05:45:13;14.63;;;4.25;;
15482;SDS011;7843;50.330;7.312;2024-01-15T05:47:40;8.27;;;3.70;;
15482;SDS011;7843;50.330;7.312;2024-01-15T05:50:07;10.13;;;2.92;;
15482;SDS011;7843;50.330;7.312;2024-01-15T05:52:34;5.47;;;3.03;;
15482;SDS011;7843;50.330;7.312;2024-01-15T05:55:01;3.67;;;2.40;;
15482;SDS011;7843;50.330;7.312;2024-01-15T05:57:27;10.43;;;3.63;;
15482;SDS011;7843;50.330;7.312;2024-01-15T05:59:54;7.15;;;2.97;;
15482;SDS011;7843;50.330;7.312;2024-01-15T06:02:21;9.13;;;3.80;;
15482;SDS011;7843;50.330;7.312;2024-01-15T06:04:48;6.60;;;2.80;;
15482;SDS011;7843;50.330;7.312;2024-01-15T06:07:14;8.75;;;4.43;;
15482;SDS011;7843;50.330;7.312;2024-01-15T06:09:41;6.90;;;3.25;;
15482;SDS011;7843;50.330;7.312;2024-01-15T06:12:08;6.60;;;3.25;;
15482;SDS011;7843;50.330;7.312;2024-01-15T06:14:35;11.70;;;3.92;;
15482;SDS011;7843;50.330;7.312;2024-01-15T06:17:01;5.50;;;2.58;;
15482;SDS011;7843;50.330;7.312;2024-01-15T06:19:28;3.10;;;2.17;;
15482;SDS011;7843;50.330;7.312;2024-01-15T06:21:55;7.07;;;3.58;;
15482;SDS011;7843;50.330;7.312;2024-01-15T06:24:22;19.13;;;3.55;;
15482;SDS011;7843;50.330;7.312;2024-01-15T06:26:49;5.60;;;2.88;;
15482;SDS011;7843;50.330;7.312;2024-01-15T06:29:15;5.50;;;2.88;;
15482;SDS011;7843;50.330;7.312;2024-01-15T06:31:42;6.90;;;3.42;;
15482;SDS011;7843;50.330;7.312;2024-01-15T06:34:09;6.57;;;3.30;;
15482;SDS011;7843;50.330;7.312;2024-01-15T06:36:36;7.88;;;3.65;;
15482;SDS011;7843;50.330;7.312;2024-01-15T06:39:03;5.50;;;2.63;;
15482;SDS011;7843;50.330;7.312;2024-01-15T06:41:30;10.83;;;2.87;;
15482;SDS011;7843;50.330;7.312;2024-01-15T06:43:56;3.97;;;2.77;;
15482;SDS011;7843;50.330;7.312;2024-01-15T06:46:23;11.15;;;4.07;;
15482;SDS011;7843;50.330;7.312;2024-01-15T06:48:50;5.88;;;3.20;;
15482;SDS011;7843;50.330;7.312;2024-01-15T06:51:17;8.10;;;3.50;;
15482;SDS011;7843;50.330;7.312;2024-01-15T06:53:43;6.70;;;2.77;;
15482;SDS011;7843;50.330;7.312;2024-01-15T06:56:10;8.13;;;3.70;;
15482;SDS011;7843;50.330;7.312;2024-01-15T06:58:37;6.13;;;3.40;;
15482;SDS011;7843;50.330;7.312;2024-01-15T07:01:04;10.48;;;4.13;;
15482;SDS011;7843;50.330;7.312;2024-01-15T07:03:31;6.65;;;3.40;;
15482;SDS011;7843;50.330;7.312;2024-01-15T07:05:57;7.00;;;3.35;;
15482;SDS011;7843;50.330;7.312;2024-01-15T07:08:24;7.97;;;3.75;;
15482;SDS011;7843;50.330;7.312;2024-01-15T07:10:51;6.95;;;3.53;;
15482;SDS011;7843;50.330;7.312;2024-01-15T07:13:18;6.25;;;3.15;;
15482;SDS011;7843;50.330;7.312;2024-01-15T07:15:44;7.60;;;3.90;;
15482;SDS011;7843;50.330;7.312;2024-01-15T07:18:11;8.80;;;3.88;;
15482;SDS011;7843;50.330;7.312;2024-01-15T07:20:38;5.20;;;2.53;;
15482;SDS011;7843;50.330;7.312;2024-01-15T07:23:05;6.70;;;3.05;;
15482;SDS011;7843;50.330;7.312;2024-01-15T07:25:31;8.57;;;3.53;;
15482;SDS011;7843;50.330;7.312;2024-01-15T07:27:58;3.88;;;2.28;;
15482;SDS011;7843;50.330;7.312;2024-01-15T07:30:25;4.57;;;2.60;;
15482;SDS011;7843;50.330;7.312;2024-01-15T07:32:52;4.97;;;2.78;;
15482;SDS011;7843;50.330;7.312;2024-01-15T07:35:19;10.15;;;3.42;;
15482;SDS011;7843;50.330;7.312;2024-01-15T07:37:46;6.68;;;2.88;;
15482;SDS011;7843;50.330;7.312;2024-01-15T07:40:12;6.45;;;3.90;;
15482;SDS011;7843;50.330;7.312;2024-01-15T07:42:39;12.03;;;3.43;;
15482;SDS011;7843;50.330;7.312;2024-01-15T07:45:09;4.97;;;2.92;;
15482;SDS011;7843;50.330;7.312;2024-01-15T07:47:36;7.55;;;2.95;;
15482;SDS011;7843;50.330;7.312;2024-01-15T07:50:03;6.03;;;3.42;;
15482;SDS011;7843;50.330;7.312;2024-01-15T07:52:30;5.28;;;3.13;;
15482;SDS011;7843;50.330;7.312;2024-01-15T07:54:57;10.18;;;4.05;;
15482;SDS011;7843;50.330;7.312;2024-01-15T07:57:26;11.27;;;4.53;;
15482;SDS011;7843;50.330;7.312;2024-01-15T07:59:52;11.00;;;5.20;;
15482;SDS011;7843;50.330;7.312;2024-01-15T08:02:19;7.43;;;4.20;;
15482;SDS011;7843;50.330;7.312;2024-01-15T08:04:46;9.70;;;4.57;;
15482;SDS011;7843;50.330;7.312;2024-01-15T08:07:12;11.87;;;5.13;;
15482;SDS011;7843;50.330;7.312;2024-01-15T08:09:39;9.35;;;3.97;;
15482;SDS011;7843;50.330;7.312;2024-01-15T08:12:06;9.70;;;4.60;;
15482;SDS011;7843;50.330;7.312;2024-01-15T08:14:33;7.47;;;4.10;;
15482;SDS011;7843;50.330;7.312;2024-01-15T08:17:00;10.40;;;3.55;;
15482;SDS011;7843;50.330;7.312;2024-01-15T08:19:27;13.90;;;4.70;;
15482;SDS011;7843;50.330;7.312;2024-01-15T08:21:54;9.07;;;4.45;;
15482;SDS011;7843;50.330;7.312;2024-01-15T08:24:21;7.90;;;4.63;;
15482;SDS011;7843;50.330;7.312;2024-01-15T08:26:48;9.23;;;5.00;;
15482;SDS011;7843;50.330;7.312;2024-01-15T08:29:14;9.77;;;4.50;;
15482;SDS011;7843;50.330;7.312;2024-01-15T08:31:42;10.07;;;4.47;;
15482;SDS011;7843;50.330;7.312;2024-01-15T08:34:08;16.10;;;5.35;;
15482;SDS011;7843;50.330;7.312;2024-01-15T08:36:35;9.90;;;4.45;;
15482;SDS011;7843;50.330;7.312;2024-01-15T08:39:02;10.27;;;4.43;;
15482;SDS011;7843;50.330;7.312;2024-01-15T08:41:33;13.50;;;4.95;;
15482;SDS011;7843;50.330;7.312;2024-01-15T08:44:00;13.02;;;4.47;;
15482;SDS011;7843;50.330;7.312;2024-01-15T08:46:28;9.43;;;4.63;;
15482;SDS011;7843;50.330;7.312;2024-01-15T08:48:55;10.95;;;4.80;;
15482;SDS011;7843;50.330;7.312;2024-01-15T08:51:22;9.73;;;4.10;;
15482;SDS011;7843;50.330;7.312;2024-01-15T08:53:49;6.10;;;3.08;;
15482;SDS011;7843;50.330;7.312;2024-01-15T08:56:15;6.30;;;3.60;;
15482;SDS011;7843;50.330;7.312;2024-01-15T08:58:42;9.15;;;4.35;;
15482;SDS011;7843;50.330;7.312;2024-01-15T09:01:09;9.45;;;4.45;;
15482;SDS011;7843;50.330;7.312;2024-01-15T09:03:36;12.10;;;4.85;;
15482;SDS011;7843;50.330;7.312;2024-01-15T09:06:03;6.73;;;3.80;;
15482;SDS011;7843;50.330;7.312;2024-01-15T09:08:30;8.63;;;4.35;;
15482;SDS011;7843;50.330;7.312;2024-01-15T09:10:56;9.75;;;4.50;;
15482;SDS011;7843;50.330;7.312;2024-01-15T09:13:29;11.10;;;4.65;;
15482;SDS011;7843;50.330;7.312;2024-01-15T09:15:55;6.07;;;3.72;;
15482;SDS011;7843;50.330;7.312;2024-01-15T09:18:22;11.55;;;4.40;;
15482;SDS011;7843;50.330;7.312;2024-01-15T09:20:49;8.70;;;4.07;;
15482;SDS011;7843;50.330;7.312;2024-01-15T09:23:16;12.02;;;4.88;;
15482;SDS011;7843;50.330;7.312;2024-01-15T09:25:43;7.30;;;3.22;;
15482;SDS011;7843;50.330;7.312;2024-01-15T09:28:09;8.77;;;4.57;;
15482;SDS011;7843;50.330;7.312;2024-01-15T09:30:36;8.02;;;4.15;;
15482;SDS011;7843;50.330;7.312;2024-01-15T09:33:03;8.48;;;3.78;;
15482;SDS011;7843;50.330;7.312;2024-01-15T09:35:30;7.63;;;4.18;;
15482;SDS011;7843;50.330;7.312;2024-01-15T09:37:56;12.13;;;4.30;;
15482;SDS011;7843;50.330;7.312;2024-01-15T09:40:23;9.15;;;4.30;;
15482;SDS011;7843;50.330;7.312;2024-01-15T09:42:54;8.85;;;4.28;;
15482;SDS011;7843;50.330;7.312;2024-01-15T09:45:21;9.20;;;3.35;;
15482;SDS011;7843;50.330;7.312;2024-01-15T09:47:48;8.27;;;3.27;;
15482;SDS011;7843;50.330;7.312;2024-01-15T09:50:15;5.77;;;3.73;;
15482;SDS011;7843;50.330;7.312;2024-01-15T09:52:42;8.97;;;3.23;;
15482;SDS011;7843;50.330;7.312;2024-01-15T09:55:10;8.18;;;3.88;;
15482;SDS011;7843;50.330;7.312;2024-01-15T09:57:38;7.18;;;4.10;;
15482;SDS011;7843;50.330;7.312;2024-01-15T10:00:06;8.02;;;3.63;;
15482;SDS011;7843;50.330;7.312;2024-01-15T10:02:36;9.27;;;4.22;;
15482;SDS011;7843;50.330;7.312;2024-01-15T10:05:03;9.98;;;4.18;;
15482;SDS011;7843;50.330;7.312;2024-01-15T10:07:31;11.05;;;4.72;;
15482;SDS011;7843;50.330;7.312;2024-01-15T10:10:02;13.38;;;5.10;;
15482;SDS011;7843;50.330;7.312;2024-01-15T10:12:29;11.23;;;3.70;;
15482;SDS011;7843;50.330;7.312;2024-01-15T10:14:56;9.75;;;4.63;;
15482;SDS011;7843;50.330;7.312;2024-01-15T10:17:24;10.18;;;4.18;;
15482;SDS011;7843;50.330;7.312;2024-01-15T10:19:53;7.07;;;2.80;;
15482;SDS011;7843;50.330;7.312;2024-01-15T10:22:20;7.07;;;3.35;;
15482;SDS011;7843;50.330;7.312;2024-01-15T10:24:46;8.00;;;3.83;;
15482;SDS011;7843;50.330;7.312;2024-01-15T10:27:13;7.75;;;4.53;;
15482;SDS011;7843;50.330;7.312;2024-01-15T10:29:41;15.30;;;5.28;;
15482;SDS011;7843;50.330;7.312;2024-01-15T10:32:08;6.13;;;3.40;;
15482;SDS011;7843;50.330;7.312;2024-01-15T10:34:39;5.03;;;2.83;;
15482;SDS011;7843;50.330;7.312;2024-01-15T10:37:09;12.73;;;5.30;;
15482;SDS011;7843;50.330;7.312;2024-01-15T10:39:36;8.77;;;3.72;;
15482;SDS011;7843;50.330;7.312;2024-01-15T10:42:04;6.72;;;3.25;;
15482;SDS011;7843;50.330;7.312;2024-01-15T10:44:32;10.13;;;4.35;;
15482;SDS011;7843;50.330;7.312;2024-01-15T10:46:59;5.32;;;2.90;;
15482;SDS011;7843;50.330;7.312;2024-01-15T10:49:26;8.20;;;2.92;;
15482;SDS011;7843;50.330;7.312;2024-01-15T10:51:56;4.53;;;2.40;;
15482;SDS011;7843;50.330;7.312;2024-01-15T10:54:23;4.45;;;2.63;;
15482;SDS011;7843;50.330;7.312;2024-01-15T10:56:50;2.60;;;1.77;;
15482;SDS011;7843;50.330;7.312;2024-01-15T10:59:20;5.47;;;2.83;;
15482;SDS011;7843;50.330;7.312;2024-01-15T11:01:51;5.95;;;2.40;;
15482;SDS011;7843;50.330;7.312;2024-01-15T11:04:20;5.32;;;2.38;;
15482;SDS011;7843;50.330;7.312;2024-01-15T11:06:49;5.35;;;2.63;;
15482;SDS011;7843;50.330;7.312;2024-01-15T11:09:20;4.23;;;2.20;;
15482;SDS011;7843;50.330;7.312;2024-01-15T11:11:47;4.33;;;2.33;;
15482;SDS011;7843;50.330;7.312;2024-01-15T11:14:38;3.30;;;1.95;;
15482;SDS011;7843;50.330;7.312;2024-01-15T11:17:06;3.20;;;1.75;;
15482;SDS011;7843;50.330;7.312;2024-01-15T11:19:37;2.30;;;1.50;;
15482;SDS011;7843;50.330;7.312;2024-01-15T11:25:14;2.38;;;1.45;;
15482;SDS011;7843;50.330;7.312;2024-01-15T11:27:44;3.58;;;1.88;;
15482;SDS011;7843;50.330;7.312;2024-01-15T11:30:19;5.13;;;1.70;;
15482;SDS011;7843;50.330;7.312;2024-01-15T11:32:46;4.28;;;1.75;;
15482;SDS011;7843;50.330;7.312;2024-01-15T11:35:13;2.97;;;1.90;;
15482;SDS011;7843;50.330;7.312;2024-01-15T11:40:20;1.88;;;1.48;;
15482;SDS011;7843;50.330;7.312;2024-01-15T11:43:09;3.53;;;1.70;;
15482;SDS011;7843;50.330;7.312;2024-01-15T11:45:36;2.78;;;1.30;;
15482;SDS011;7843;50.330;7.312;2024-01-15T11:48:11;1.90;;;1.20;;
15482;SDS011;7843;50.330;7.312;2024-01-15T11:50:48;2.53;;;1.50;;
15482;SDS011;7843;50.330;7.312;2024-01-15T11:55:47;2.10;;;0.93;;
15482;SDS011;7843;50.330;7.312;2024-01-15T11:58:17;2.85;;;1.15;;
15482;SDS011;7843;50.330;7.312;2024-01-15T12:00:45;1.65;;;1.15;;
15482;SDS011;7843;50.330;7.312;2024-01-15T12:03:14;1.70;;;1.20;;
15482;SDS011;7843;50.330;7.312;2024-01-15T12:05:41;1.30;;;0.98;;
15482;SDS011;7843;50.330;7.312;2024-01-15T12:08:10;4.28;;;1.40;;
15482;SDS011;7843;50.330;7.312;2024-01-15T12:10:40;2.60;;;1.20;;
15482;SDS011;7843;50.330;7.312;2024-01-15T12:13:11;1.17;;;0.82;;
15482;SDS011;7843;50.330;7.312;2024-01-15T12:15:42;3.65;;;1.08;;
15482;SDS011;7843;50.330;7.312;2024-01-15T12:18:10;2.20;;;1.00;;
15482;SDS011;7843;50.330;7.312;2024-01-15T12:20:42;1.70;;;1.23;;
15482;SDS011;7843;50.330;7.312;2024-01-15T12:23:10;0.98;;;0.73;;
15482;SDS011;7843;50.330;7.312;2024-01-15T12:25:37;4.20;;;1.25;;
15482;SDS011;7843;50.330;7.312;2024-01-15T12:28:04;1.05;;;0.65;;
15482;SDS011;7843;50.330;7.312;2024-01-15T12:30:33;1.75;;;0.80;;
15482;SDS011;7843;50.330;7.312;2024-01-15T12:33:01;0.98;;;0.65;;
15482;SDS011;7843;50.330;7.312;2024-01-15T12:35:31;1.58;;;0.95;;
15482;SDS011;7843;50.330;7.312;2024-01-15T12:38:00;1.88;;;0.82;;
15482;SDS011;7843;50.330;7.312;2024-01-15T12:40:29;1.80;;;0.98;;
15482;SDS011;7843;50.330;7.312;2024-01-15T12:42:57;1.80;;;0.80;;
15482;SDS011;7843;50.330;7.312;2024-01-15T12:45:24;1.50;;;0.80;;
15482;SDS011;7843;50.330;7.312;2024-01-15T12:47:52;1.52;;;1.00;;
15482;SDS011;7843;50.330;7.312;2024-01-15T12:50:19;2.05;;;0.63;;
15482;SDS011;7843;50.330;7.312;2024-01-15T12:52:50;0.70;;;0.68;;
15482;SDS011;7843;50.330;7.312;2024-01-15T12:55:16;0.83;;;0.73;;
15482;SDS011;7843;50.330;7.312;2024-01-15T12:57:43;0.80;;;0.50;;
15482;SDS011;7843;50.330;7.312;2024-01-15T13:00:11;0.73;;;0.52;;
15482;SDS011;7843;50.330;7.312;2024-01-15T13:02:39;1.13;;;0.82;;
15482;SDS011;7843;50.330;7.312;2024-01-15T13:05:10;1.42;;;1.10;;
15482;SDS011;7843;50.330;7.312;2024-01-15T13:07:38;0.90;;;0.60;;
15482;SDS011;7843;50.330;7.312;2024-01-15T13:10:05;2.70;;;1.08;;
15482;SDS011;7843;50.330;7.312;2024-01-15T13:12:33;2.75;;;0.75;;
15482;SDS011;7843;50.330;7.312;2024-01-15T13:15:00;3.55;;;1.02;;
15482;SDS011;7843;50.330;7.312;2024-01-15T13:17:29;0.70;;;0.60;;
15482;SDS011;7843;50.330;7.312;2024-01-15T13:19:56;1.50;;;0.80;;
15482;SDS011;7843;50.330;7.312;2024-01-15T13:22:23;2.08;;;1.40;;
15482;SDS011;7843;50.330;7.312;2024-01-15T13:24:55;2.17;;;1.13;;
15482;SDS011;7843;50.330;7.312;2024-01-15T13:27:22;0.77;;;0.60;;
15482;SDS011;7843;50.330;7.312;2024-01-15T13:29:49;1.02;;;0.50;;
15482;SDS011;7843;50.330;7.312;2024-01-15T13:32:17;2.10;;;0.65;;
15482;SDS011;7843;50.330;7.312;2024-01-15T13:34:52;0.80;;;0.50;;
15482;SDS011;7843;50.330;7.312;2024-01-15T13:37:19;2.88;;;0.57;;
15482;SDS011;7843;50.330;7.312;2024-01-15T13:39:45;2.42;;;0.95;;
15482;SDS011;7843;50.330;7.312;2024-01-15T13:42:12;0.65;;;0.50;;
15482;SDS011;7843;50.330;7.312;2024-01-15T13:44:39;1.20;;;0.45;;
15482;SDS011;7843;50.330;7.312;2024-01-15T13:47:06;3.33;;;0.57;;
15482;SDS011;7843;50.330;7.312;2024-01-15T13:49:32;1.02;;;0.47;;
15482;SDS011;7843;50.330;7.312;2024-01-15T13:52:00;3.80;;;0.80;;
15482;SDS011;7843;50.330;7.312;2024-01-15T13:54:27;0.40;;;0.40;;
15482;SDS011;7843;50.330;7.312;2024-01-15T13:56:56;1.70;;;0.70;;
15482;SDS011;7843;50.330;7.312;2024-01-15T13:59:22;3.53;;;0.88;;
15482;SDS011;7843;50.330;7.312;2024-01-15T14:01:49;0.80;;;0.50;;
15482;SDS011;7843;50.330;7.312;2024-01-15T14:04:16;1.50;;;0.70;;
15482;SDS011;7843;50.330;7.312;2024-01-15T14:06:43;3.17;;;0.95;;
15482;SDS011;7843;50.330;7.312;2024-01-15T14:09:09;0.57;;;0.55;;
15482;SDS011;7843;50.330;7.312;2024-01-15T14:11:36;0.82;;;0.45;;
15482;SDS011;7843;50.330;7.312;2024-01-15T14:14:04;3.25;;;0.75;;
15482;SDS011;7843;50.330;7.312;2024-01-15T14:16:30;1.40;;;0.47;;
15482;SDS011;7843;50.330;7.312;2024-01-15T14:18:57;0.30;;;0.30;;
15482;SDS011;7843;50.330;7.312;2024-01-15T14:21:24;0.68;;;0.50;;
15482;SDS011;7843;50.330;7.312;2024-01-15T14:23:50;2.90;;;0.93;;
15482;SDS011;7843;50.330;7.312;2024-01-15T14:26:17;1.10;;;0.55;;
15482;SDS011;7843;50.330;7.312;2024-01-15T14:28:44;0.87;;;0.77;;
15482;SDS011;7843;50.330;7.312;2024-01-15T14:31:13;1.30;;;0.82;;
15482;SDS011;7843;50.330;7.312;2024-01-15T14:33:40;1.00;;;0.80;;
15482;SDS011;7843;50.330;7.312;2024-01-15T14:36:06;1.00;;;0.60;;
15482;SDS011;7843;50.330;7.312;2024-01-15T14:38:33;4.75;;;0.88;;
15482;SDS011;7843;50.330;7.312;2024-01-15T14:41:01;0.60;;;0.40;;
15482;SDS011;7843;50.330;7.312;2024-01-15T14:43:28;1.40;;;0.52;;
15482;SDS011;7843;50.330;7.312;2024-01-15T14:45:54;2.03;;;0.47;;
15482;SDS011;7843;50.330;7.312;2024-01-15T14:48:21;1.35;;;0.80;;
15482;SDS011;7843;50.330;7.312;2024-01-15T14:50:48;2.17;;;0.60;;
15482;SDS011;7843;50.330;7.312;2024-01-15T14:53:14;2.72;;;0.82;;
15482;SDS011;7843;50.330;7.312;2024-01-15T14:55:41;0.50;;;0.40;;
15482;SDS011;7843;50.330;7.312;2024-01-15T14:58:08;2.67;;;0.70;;
15482;SDS011;7843;50.330;7.312;2024-01-15T15:00:35;0.47;;;0.45;;
15482;SDS011;7843;50.330;7.312;2024-01-15T15:03:01;0.70;;;0.43;;
15482;SDS011;7843;50.330;7.312;2024-01-15T15:05:29;2.15;;;0.82;;
15482;SDS011;7843;50.330;7.312;2024-01-15T15:07:55;1.03;;;0.60;;
15482;SDS011;7843;50.330;7.312;2024-01-15T15:10:22;2.00;;;0.85;;